Time;durP1;ratioP1;P1;durP2;ratioP2;P2;SDS_P1;SDS_P2;PMS_P1;PMS_P2;Temp;Humidity;BMP_temperature;BMP_pressure;BME280_temperature;BME280_humidity;BME280_pressure;Samples;Min_cycle;Max_cycle;Signal;HPM_P1;HPM_P2
2022/05/18 00:00:42;;;;;;;9.68;1.77;;;8.40;99.90;;;;;;6126986;29;20549;-66
2022/05/18 00:03:48;;;;;;;3.45;1.20;;;8.30;99.90;;;;;;6130917;29;20236;-66
2022/05/18 00:06:53;;;;;;;6.70;1.60;;;8.40;99.90;;;;;;6132278;29;20212;-66
2022/05/18 00:09:59;;;;;;;6.38;1.17;;;8.20;99.90;;;;;;6130978;29;20240;-67
2022/05/18 00:13:06;;;;;;;3.22;1.17;;;8.20;99.90;;;;;;6130465;29;20606;-66
2022/05/18 00:16:17;;;;;;;3.97;1.13;;;8.20;99.90;;;;;;6130786;29;20212;-67
2022/05/18 00:19:23;;;;;;;5.50;1.20;;;8.20;99.90;;;;;;6131315;29;20232;-67
2022/05/18 00:22:28;;;;;;;2.60;1.05;;;8.20;99.90;;;;;;6131399;29;20321;-66
2022/05/18 00:25:36;;;;;;;3.47;1.65;;;8.20;99.90;;;;;;6131049;29;20507;-66
2022/05/18 00:28:41;;;;;;;1.33;1.20;;;8.20;99.90;;;;;;6129907;29;20564;-67
2022/05/18 00:31:48;;;;;;;2.63;1.40;;;8.30;99.90;;;;;;6130960;29;20234;-67
2022/05/18 00:34:54;;;;;;;2.50;1.27;;;8.20;99.90;;;;;;6131054;29;20244;-67
2022/05/18 00:38:00;;;;;;;4.00;1.08;;;8.20;99.90;;;;;;6130775;29;20702;-66
2022/05/18 00:41:06;;;;;;;1.05;1.00;;;8.20;99.90;;;;;;6132254;29;20559;-66
2022/05/18 00:44:12;;;;;;;1.65;1.10;;;8.10;99.90;;;;;;6113249;29;20683;-66
2022/05/18 00:47:20;;;;;;;0.90;0.90;;;8.20;99.90;;;;;;6131808;29;20212;-66
2022/05/18 00:50:35;;;;;;;3.38;1.17;;;8.20;99.90;;;;;;6131492;29;20567;-67
2022/05/18 00:53:45;;;;;;;4.60;1.17;;;8.20;99.90;;;;;;6130696;29;20712;-67
2022/05/18 00:56:54;;;;;;;3.65;1.38;;;8.10;99.90;;;;;;6130094;29;20249;-66
2022/05/18 01:00:06;;;;;;;7.15;1.30;;;8.20;99.90;;;;;;6129582;29;20246;-66
2022/05/18 01:03:25;;;;;;;13.00;1.70;;;8.20;99.90;;;;;;6130426;29;20232;-66
2022/05/18 01:06:36;;;;;;;10.55;1.45;;;8.20;99.90;;;;;;6129858;29;20212;-66
2022/05/18 01:09:44;;;;;;;4.18;1.30;;;8.20;99.90;;;;;;6129291;29;20243;-66
2022/05/18 01:12:49;;;;;;;2.17;1.42;;;8.20;99.90;;;;;;6129094;29;20231;-66
2022/05/18 01:15:54;;;;;;;6.80;1.40;;;8.10;99.90;;;;;;6130347;29;20308;-66
2022/05/18 01:19:02;;;;;;;1.10;1.10;;;8.10;99.90;;;;;;6129114;29;20242;-67
2022/05/18 01:22:15;;;;;;;8.65;1.30;;;8.10;99.90;;;;;;6129123;29;20238;-67
2022/05/18 01:25:35;;;;;;;7.28;1.30;;;8.10;99.90;;;;;;6129693;29;20619;-66
2022/05/18 01:28:46;;;;;;;6.43;1.20;;;8.10;99.90;;;;;;6129059;29;20691;-66
2022/05/18 01:31:58;;;;;;;4.13;1.13;;;8.10;99.90;;;;;;6130557;29;20232;-66
2022/05/18 01:35:03;;;;;;;3.08;1.13;;;8.10;99.90;;;;;;6130271;29;20238;-65
2022/05/18 01:38:12;;;;;;;1.58;1.45;;;8.10;99.90;;;;;;6129292;29;20232;-66
2022/05/18 01:41:22;;;;;;;2.65;1.27;;;8.00;99.90;;;;;;6130264;29;20222;-67
2022/05/18 01:44:29;;;;;;;1.00;1.00;;;8.10;99.90;;;;;;6130758;29;20695;-67
2022/05/18 01:47:38;;;;;;;2.40;1.20;;;8.00;99.90;;;;;;6131283;29;20588;-66
2022/05/18 01:50:43;;;;;;;1.02;1.00;;;8.00;99.90;;;;;;6129555;29;21481;-66
2022/05/18 01:53:49;;;;;;;3.67;1.30;;;8.00;99.90;;;;;;6104393;29;20236;-65
2022/05/18 01:56:54;;;;;;;3.95;1.40;;;8.00;99.90;;;;;;6105669;29;20213;-66
2022/05/18 02:00:01;;;;;;;5.88;1.15;;;8.00;99.90;;;;;;6106857;29;20247;-65
2022/05/18 02:03:19;;;;;;;3.03;1.10;;;8.00;99.90;;;;;;6105919;29;20243;-67
2022/05/18 02:06:24;;;;;;;3.15;1.42;;;8.00;99.90;;;;;;6104001;29;20205;-67
2022/05/18 02:09:31;;;;;;;6.25;1.30;;;8.00;99.90;;;;;;6105122;29;20656;-68
2022/05/18 02:12:36;;;;;;;2.25;1.20;;;8.00;99.90;;;;;;6106131;29;20550;-66
2022/05/18 02:15:43;;;;;;;1.67;1.17;;;8.00;99.90;;;;;;6104912;29;20220;-66
2022/05/18 02:18:49;;;;;;;3.63;1.50;;;8.00;99.90;;;;;;6105009;29;20237;-67
2022/05/18 02:21:55;;;;;;;1.52;1.27;;;8.00;99.90;;;;;;6104903;29;20223;-67
2022/05/18 02:25:00;;;;;;;5.07;1.27;;;8.00;99.90;;;;;;6102245;29;20243;-66
2022/05/18 02:28:06;;;;;;;3.88;1.48;;;8.00;99.90;;;;;;6104742;29;20233;-66
2022/05/18 02:31:14;;;;;;;2.75;1.08;;;8.00;99.90;;;;;;6105791;29;20204;-66
2022/05/18 02:34:19;;;;;;;2.92;1.20;;;8.10;99.90;;;;;;6104576;29;20251;-67
2022/05/18 02:37:26;;;;;;;1.85;1.30;;;8.10;99.90;;;;;;6108080;29;20209;-66
2022/05/18 02:40:31;;;;;;;1.30;1.20;;;8.10;99.90;;;;;;6106525;29;20219;-65
2022/05/18 02:43:38;;;;;;;1.75;1.23;;;8.10;99.90;;;;;;6104647;29;20271;-66
2022/05/18 02:46:45;;;;;;;1.60;1.17;;;8.00;99.90;;;;;;6104709;29;20233;-66
2022/05/18 02:49:51;;;;;;;5.88;1.40;;;8.00;99.90;;;;;;6104081;29;20690;-66
2022/05/18 02:52:56;;;;;;;1.00;1.00;;;8.10;99.90;;;;;;6116425;29;20255;-66
2022/05/18 02:56:05;;;;;;;1.30;1.20;;;8.10;99.90;;;;;;6127261;29;20235;-66
2022/05/18 02:59:12;;;;;;;1.42;1.40;;;8.10;99.90;;;;;;6127666;29;20232;-66
2022/05/18 03:02:19;;;;;;;2.00;1.20;;;8.00;99.90;;;;;;6126402;29;20235;-70
2022/05/18 03:05:24;;;;;;;1.95;1.08;;;8.00;99.90;;;;;;6127490;29;20211;-67
2022/05/18 03:08:30;;;;;;;7.03;1.30;;;8.00;99.90;;;;;;6103548;29;20239;-66
2022/05/18 03:11:36;;;;;;;2.97;1.23;;;8.10;99.90;;;;;;6118383;29;20208;-66
2022/05/18 03:14:41;;;;;;;4.38;1.40;;;8.20;99.90;;;;;;6126583;29;20238;-66
2022/05/18 03:17:48;;;;;;;5.82;1.17;;;8.20;99.90;;;;;;6127354;29;20242;-66
2022/05/18 03:24:28;;;;;;;1.23;1.23;;;8.20;99.90;;;;;;6054891;29;20359;-66
2022/05/18 03:27:34;;;;;;;2.40;1.30;;;8.30;99.90;;;;;;6126785;29;20239;-66
2022/05/18 03:30:39;;;;;;;4.38;1.50;;;8.40;99.90;;;;;;6126889;29;20630;-66
2022/05/18 03:33:46;;;;;;;3.72;1.30;;;8.40;99.90;;;;;;6126261;29;20236;-67
2022/05/18 03:36:52;;;;;;;4.43;1.27;;;8.40;99.90;;;;;;6126248;29;20203;-66
2022/05/18 03:39:57;;;;;;;1.40;1.40;;;8.40;99.90;;;;;;6127200;29;20211;-67
2022/05/18 03:43:02;;;;;;;1.50;1.40;;;8.50;99.90;;;;;;6126609;29;20616;-65
2022/05/18 03:46:11;;;;;;;1.42;1.30;;;8.60;99.90;;;;;;6126896;29;20660;-66
2022/05/18 03:49:18;;;;;;;1.70;1.33;;;8.60;99.90;;;;;;6126840;29;20231;-66
2022/05/18 03:52:23;;;;;;;2.40;1.25;;;8.60;99.90;;;;;;6127451;29;20239;-66
2022/05/18 03:55:29;;;;;;;6.93;1.27;;;8.70;99.90;;;;;;6128360;29;20204;-66
2022/05/18 03:58:35;;;;;;;2.63;1.20;;;8.70;99.90;;;;;;6126748;29;20587;-66
2022/05/18 04:01:41;;;;;;;1.25;1.25;;;8.80;99.90;;;;;;6126771;29;20203;-66
2022/05/18 04:04:48;;;;;;;1.10;1.10;;;8.80;99.90;;;;;;6126318;29;20244;-66
2022/05/18 04:07:53;;;;;;;1.98;1.42;;;8.80;99.90;;;;;;6108967;29;20232;-67
2022/05/18 04:10:58;;;;;;;3.67;1.67;;;8.90;99.90;;;;;;6126266;29;20204;-66
2022/05/18 04:14:04;;;;;;;4.20;1.38;;;8.90;99.90;;;;;;6126050;29;20240;-66
2022/05/18 04:17:09;;;;;;;1.95;1.48;;;9.00;99.90;;;;;;6126091;29;20214;-66
2022/05/18 04:20:20;;;;;;;1.77;1.63;;;9.00;99.90;;;;;;6127070;29;20204;-66
2022/05/18 04:23:26;;;;;;;1.98;1.30;;;9.00;99.90;;;;;;6126364;29;20244;-68
2022/05/18 04:26:31;;;;;;;2.05;1.50;;;9.00;99.90;;;;;;6126587;29;20212;-67
2022/05/18 04:29:36;;;;;;;2.60;1.40;;;9.10;99.90;;;;;;6126470;29;20239;-67
2022/05/18 04:32:43;;;;;;;4.18;1.30;;;9.20;99.90;;;;;;6126128;29;20232;-66
2022/05/18 04:35:50;;;;;;;1.50;1.40;;;9.20;99.90;;;;;;6126303;29;20219;-67
2022/05/18 04:38:56;;;;;;;3.40;1.50;;;9.20;99.90;;;;;;6125560;29;20244;-67
2022/05/18 04:42:01;;;;;;;4.45;1.58;;;9.30;99.90;;;;;;6125015;29;20204;-65
2022/05/18 04:45:15;;;;;;;2.38;1.30;;;9.40;99.90;;;;;;6125991;29;20238;-66
2022/05/18 04:48:22;;;;;;;1.30;1.30;;;9.40;99.90;;;;;;6128133;29;20577;-65
2022/05/18 04:51:29;;;;;;;10.15;1.85;;;9.40;99.90;;;;;;6114240;29;20211;-67
2022/05/18 04:54:35;;;;;;;3.90;1.55;;;9.40;99.90;;;;;;6134175;29;20639;-67
2022/05/18 04:57:41;;;;;;;3.67;1.50;;;9.50;99.90;;;;;;6116742;29;20238;-67
2022/05/18 05:00:49;;;;;;;1.45;1.35;;;9.50;99.90;;;;;;6133284;29;20215;-67
2022/05/18 05:03:54;;;;;;;2.05;1.40;;;9.60;99.90;;;;;;6129629;29;20232;-67
2022/05/18 05:07:01;;;;;;;3.67;1.45;;;9.60;99.90;;;;;;6129334;29;20212;-67
2022/05/18 05:10:08;;;;;;;4.00;1.65;;;9.70;99.90;;;;;;6129848;29;20212;-68
2022/05/18 05:13:19;;;;;;;3.45;1.45;;;9.80;99.90;;;;;;6129221;29;20228;-66
2022/05/18 05:16:28;;;;;;;2.80;1.52;;;9.90;99.90;;;;;;6129738;29;20208;-69
2022/05/18 05:19:33;;;;;;;4.32;1.80;;;10.00;99.90;;;;;;6129105;29;20244;-67
2022/05/18 05:22:40;;;;;;;6.63;1.50;;;10.00;99.90;;;;;;6128673;29;20236;-67
2022/05/18 05:25:46;;;;;;;5.18;1.60;;;10.10;99.90;;;;;;6128955;29;20216;-66
2022/05/18 05:28:51;;;;;;;8.02;1.60;;;10.10;99.90;;;;;;6128834;29;20246;-67
2022/05/18 05:31:56;;;;;;;3.22;1.40;;;10.20;99.90;;;;;;6128606;29;20315;-69
2022/05/18 05:35:02;;;;;;;5.25;1.60;;;10.20;99.90;;;;;;6129188;29;20227;-66
2022/05/18 05:38:09;;;;;;;3.60;1.50;;;10.40;99.80;;;;;;6128598;29;20228;-66
2022/05/18 05:41:15;;;;;;;3.53;1.70;;;10.60;99.50;;;;;;6129635;29;20223;-67
2022/05/18 05:44:20;;;;;;;3.15;1.60;;;10.80;99.20;;;;;;6129070;29;20329;-67
2022/05/18 05:47:28;;;;;;;4.57;1.52;;;10.90;98.80;;;;;;6128699;29;20232;-67
2022/05/18 05:50:34;;;;;;;2.72;1.50;;;11.10;98.60;;;;;;6128677;29;20575;-66
2022/05/18 05:53:41;;;;;;;1.98;1.40;;;11.30;98.90;;;;;;6128047;29;20605;-66
2022/05/18 05:56:46;;;;;;;3.88;1.83;;;11.50;98.60;;;;;;6128622;29;20216;-66
2022/05/18 05:59:51;;;;;;;1.92;1.33;;;11.60;97.40;;;;;;6126974;29;20220;-68
2022/05/18 06:02:57;;;;;;;2.30;1.42;;;11.80;96.90;;;;;;6127963;29;20235;-66
2022/05/18 06:06:03;;;;;;;6.72;1.50;;;12.00;95.90;;;;;;6128221;29;20223;-67
2022/05/18 06:09:09;;;;;;;1.20;1.20;;;12.10;96.80;;;;;;6127907;29;20238;-66
2022/05/18 06:12:15;;;;;;;6.20;1.55;;;12.30;96.60;;;;;;6127630;29;20232;-65
2022/05/18 06:15:20;;;;;;;3.55;1.33;;;12.40;95.90;;;;;;6128153;29;20330;-68
2022/05/18 06:18:27;;;;;;;2.15;1.52;;;12.50;95.60;;;;;;6127893;29;20243;-68
2022/05/18 06:21:32;;;;;;;5.50;1.45;;;12.70;95.10;;;;;;6128469;29;20219;-69
2022/05/18 06:24:40;;;;;;;4.03;1.30;;;12.80;94.90;;;;;;6127583;29;20695;-66
2022/05/18 06:27:46;;;;;;;3.30;1.30;;;12.90;94.40;;;;;;6127318;29;20360;-67
2022/05/18 06:30:51;;;;;;;1.73;1.17;;;13.10;95.50;;;;;;6127663;29;20219;-66
2022/05/18 06:33:56;;;;;;;4.05;1.60;;;13.20;94.50;;;;;;6127814;29;20235;-67
2022/05/18 06:37:03;;;;;;;3.63;1.23;;;13.30;94.30;;;;;;6126836;29;20234;-67
2022/05/18 06:40:11;;;;;;;5.13;1.60;;;13.40;92.90;;;;;;6128102;29;20212;-67
2022/05/18 06:43:17;;;;;;;4.43;1.55;;;13.60;92.30;;;;;;6127338;29;20706;-65
2022/05/18 06:46:25;;;;;;;6.53;1.50;;;13.70;92.70;;;;;;6127606;29;20674;-66
2022/05/18 06:49:31;;;;;;;5.30;1.70;;;13.80;91.60;;;;;;6127229;29;20236;-68
2022/05/18 06:52:37;;;;;;;2.35;1.30;;;14.00;90.60;;;;;;6126922;29;20242;-66
2022/05/18 06:55:44;;;;;;;4.90;1.17;;;14.10;90.90;;;;;;6127257;29;20568;-65
2022/05/18 06:59:09;;;;;;;4.57;1.40;;;14.20;90.10;;;;;;6126695;29;20244;-66
2022/05/18 07:02:15;;;;;;;1.58;1.40;;;14.30;90.10;;;;;;6126856;29;20238;-67
2022/05/18 07:05:20;;;;;;;2.92;1.40;;;14.40;90.30;;;;;;6127768;29;20222;-66
2022/05/18 07:08:26;;;;;;;4.38;1.77;;;14.40;87.10;;;;;;6126820;29;20248;-67
2022/05/18 07:11:36;;;;;;;3.60;3.13;;;14.40;89.40;;;;;;6110041;29;20208;-66
2022/05/18 07:14:41;;;;;;;1.92;1.70;;;14.60;88.30;;;;;;6126739;29;20236;-66
2022/05/18 07:17:47;;;;;;;5.95;1.85;;;14.70;86.50;;;;;;6126584;29;20235;-67
2022/05/18 07:21:08;;;;;;;4.28;1.95;;;14.90;84.70;;;;;;6127356;29;20548;-67
2022/05/18 07:24:14;;;;;;;3.15;1.52;;;14.90;81.50;;;;;;6127231;29;20232;-68
2022/05/18 07:27:20;;;;;;;3.20;1.40;;;15.00;82.00;;;;;;6126225;29;20235;-67
2022/05/18 07:30:26;;;;;;;3.17;1.45;;;15.10;83.50;;;;;;6126933;29;20227;-67
2022/05/18 07:33:32;;;;;;;2.67;1.40;;;15.10;79.80;;;;;;6126201;29;20246;-67
2022/05/18 07:36:37;;;;;;;1.33;1.17;;;15.10;80.30;;;;;;6127755;29;20227;-67
2022/05/18 07:39:43;;;;;;;2.88;1.60;;;15.10;80.40;;;;;;6128203;29;20254;-67
2022/05/18 07:42:54;;;;;;;4.00;1.60;;;15.20;80.30;;;;;;6127279;29;20227;-67
2022/05/18 07:46:00;;;;;;;5.00;1.30;;;15.30;78.50;;;;;;6128196;29;20214;-66
2022/05/18 07:49:07;;;;;;;4.72;1.33;;;15.20;75.10;;;;;;6133798;29;20231;-66
2022/05/18 07:52:12;;;;;;;2.95;1.55;;;15.40;74.20;;;;;;6139637;29;20239;-66
2022/05/18 07:55:18;;;;;;;3.42;1.52;;;15.50;74.00;;;;;;6136571;29;20214;-69
2022/05/18 07:58:25;;;;;;;3.97;1.70;;;15.60;74.70;;;;;;6109446;29;20227;-66
2022/05/18 08:01:30;;;;;;;5.32;1.40;;;15.60;72.10;;;;;;6126061;29;20208;-68
2022/05/18 08:04:35;;;;;;;6.00;1.50;;;15.70;73.40;;;;;;6125474;29;20251;-66
2022/05/18 08:07:45;;;;;;;4.75;1.40;;;15.80;71.60;;;;;;6126148;29;20242;-68
2022/05/18 08:17:34;;;;;;;7.60;1.35;;;15.90;66.70;;;;;;6084341;29;20228;-67
2022/05/18 08:20:41;;;;;;;5.72;1.35;;;15.90;65.60;;;;;;6126455;29;20215;-64
2022/05/18 08:23:50;;;;;;;2.70;1.40;;;15.90;61.60;;;;;;6129248;29;20695;-66
2022/05/18 08:27:01;;;;;;;1.73;1.50;;;15.90;64.20;;;;;;6130374;29;20208;-65
2022/05/18 08:30:10;;;;;;;1.45;1.35;;;15.90;60.20;;;;;;6130708;29;20208;-66
2022/05/18 08:33:15;;;;;;;1.70;1.60;;;15.90;59.20;;;;;;6130036;29;20255;-68
2022/05/18 08:36:22;;;;;;;35.50;4.85;;;15.90;60.60;;;;;;6130540;29;20271;-67
2022/05/18 08:39:27;;;;;;;46.88;4.90;;;15.90;57.60;;;;;;6129953;29;20232;-67
2022/05/18 08:42:36;;;;;;;52.63;5.75;;;15.90;57.90;;;;;;6130000;29;20232;-68
2022/05/18 08:45:47;;;;;;;26.90;3.55;;;16.00;55.90;;;;;;6130515;29;20212;-67
2022/05/18 08:49:00;;;;;;;12.38;2.65;;;16.10;56.20;;;;;;6129745;29;20251;-68
2022/05/18 08:52:25;;;;;;;4.50;1.90;;;16.10;52.70;;;;;;6129338;29;20238;-68
2022/05/18 08:55:50;;;;;;;3.00;2.20;;;16.10;53.60;;;;;;6130380;29;20208;-67
2022/05/18 08:58:56;;;;;;;1.92;1.77;;;16.10;53.90;;;;;;6129626;29;20247;-67
2022/05/18 09:02:09;;;;;;;2.70;1.40;;;16.10;52.20;;;;;;6128784;29;20212;-67
2022/05/18 09:05:23;;;;;;;1.30;1.30;;;16.20;48.10;;;;;;6129752;29;20208;-67
2022/05/18 09:08:32;;;;;;;4.32;1.85;;;16.20;48.30;;;;;;6112338;29;20243;-67
2022/05/18 09:11:39;;;;;;;4.82;1.80;;;16.20;48.60;;;;;;6129861;29;20215;-67
2022/05/18 09:14:45;;;;;;;3.60;1.27;;;16.20;49.20;;;;;;6129423;29;20240;-66
2022/05/18 09:17:57;;;;;;;2.47;1.60;;;16.20;48.70;;;;;;6128882;29;20240;-67
2022/05/18 09:21:18;;;;;;;1.10;1.10;;;16.20;49.30;;;;;;6129802;29;20311;-67
2022/05/18 09:24:37;;;;;;;6.18;1.50;;;16.20;49.30;;;;;;6129141;29;20734;-67
2022/05/18 09:28:00;;;;;;;3.83;1.50;;;16.30;50.40;;;;;;6129331;29;20232;-67
2022/05/18 09:31:16;;;;;;;2.30;1.48;;;16.30;49.70;;;;;;6129290;29;20208;-67
2022/05/18 09:34:46;;;;;;;6.03;1.40;;;16.30;48.70;;;;;;6128808;29;20232;-67
2022/05/18 09:37:57;;;;;;;3.72;1.35;;;16.30;50.20;;;;;;6128916;29;20236;-67
2022/05/18 09:41:05;;;;;;;1.42;1.33;;;16.30;50.40;;;;;;6129571;29;20230;-67
2022/05/18 09:44:21;;;;;;;2.33;1.90;;;16.40;49.70;;;;;;6128733;29;20637;-67
2022/05/18 09:47:30;;;;;;;2.03;1.45;;;16.40;47.50;;;;;;6129187;29;20231;-66
2022/05/18 09:50:38;;;;;;;3.80;1.30;;;16.40;48.50;;;;;;6130163;29;20317;-67
2022/05/18 09:53:44;;;;;;;1.60;1.35;;;16.50;48.30;;;;;;6128699;29;20248;-68
2022/05/18 09:56:56;;;;;;;1.40;1.40;;;16.70;48.10;;;;;;6129882;29;20212;-67
2022/05/18 10:00:08;;;;;;;5.15;1.45;;;16.70;48.20;;;;;;6128652;29;20642;-67
2022/05/18 10:10:14;;;;;;;3.40;1.23;;;16.90;49.20;;;;;;6128256;29;20224;-67
2022/05/18 10:13:31;;;;;;;2.45;1.50;;;16.90;50.10;;;;;;6129087;29;20248;-67
2022/05/18 10:17:00;;;;;;;2.85;1.50;;;17.00;50.80;;;;;;6128701;29;20664;-67
2022/05/18 10:20:11;;;;;;;1.88;1.77;;;17.00;50.80;;;;;;6127790;29;20227;-69
2022/05/18 10:23:33;;;;;;;2.03;1.80;;;17.00;51.10;;;;;;6128876;29;20242;-66
2022/05/18 10:26:41;;;;;;;4.90;2.00;;;17.10;50.90;;;;;;6129033;29;20227;-67
2022/05/18 10:30:02;;;;;;;3.38;1.48;;;17.20;51.10;;;;;;6128027;29;20240;-67
2022/05/18 10:33:22;;;;;;;2.22;1.40;;;17.20;51.40;;;;;;6128244;29;20247;-66
2022/05/18 10:36:28;;;;;;;1.30;1.30;;;17.30;52.30;;;;;;6128260;29;20212;-67
2022/05/18 10:39:40;;;;;;;2.92;1.70;;;17.30;52.00;;;;;;6127370;29;20684;-67
2022/05/18 10:42:49;;;;;;;8.32;1.80;;;17.30;52.20;;;;;;6130473;29;20244;-68
2022/05/18 10:45:57;;;;;;;1.30;1.30;;;17.40;51.20;;;;;;6129415;29;20213;-67
2022/05/18 10:49:05;;;;;;;2.30;1.48;;;17.40;51.60;;;;;;6128180;29;20239;-67
2022/05/18 10:52:14;;;;;;;1.67;1.58;;;17.50;50.00;;;;;;6126777;29;20244;-67
2022/05/18 10:55:24;;;;;;;1.40;1.40;;;17.60;49.50;;;;;;6126979;29;20635;-67
2022/05/18 10:58:35;;;;;;;1.63;1.55;;;17.60;48.40;;;;;;6127038;29;20320;-67
2022/05/18 11:01:49;;;;;;;1.50;1.25;;;17.60;47.50;;;;;;6127335;29;20215;-68
2022/05/18 11:05:01;;;;;;;1.85;1.30;;;17.60;47.50;;;;;;6126492;29;20212;-68
2022/05/18 11:08:14;;;;;;;2.72;1.30;;;17.70;45.70;;;;;;6110103;29;20345;-67
2022/05/18 11:11:35;;;;;;;1.65;1.58;;;17.80;45.20;;;;;;6126728;29;20224;-68
2022/05/18 11:14:47;;;;;;;4.35;1.30;;;17.80;44.70;;;;;;6126104;29;20246;-68
2022/05/18 11:18:07;;;;;;;9.40;1.48;;;17.90;43.80;;;;;;6126477;29;20330;-67
2022/05/18 11:21:20;;;;;;;3.30;1.67;;;17.90;41.40;;;;;;6127255;29;20652;-68
2022/05/18 11:24:34;;;;;;;1.52;1.42;;;18.00;42.10;;;;;;6126389;29;20236;-68
2022/05/18 11:27:48;;;;;;;1.63;1.52;;;18.00;41.50;;;;;;6126568;29;20236;-67
2022/05/18 11:31:14;;;;;;;3.33;2.20;;;18.10;40.60;;;;;;6126646;29;20224;-68
2022/05/18 11:34:25;;;;;;;2.60;1.90;;;18.30;41.00;;;;;;6126254;29;20258;-68
2022/05/18 11:37:53;;;;;;;1.77;1.67;;;18.30;41.20;;;;;;6109296;29;20761;-68
2022/05/18 11:41:22;;;;;;;2.53;1.20;;;18.30;39.80;;;;;;6126197;29;20586;-68
2022/05/18 11:44:39;;;;;;;6.65;1.60;;;18.40;40.20;;;;;;6125731;29;20232;-67
2022/05/18 11:47:57;;;;;;;1.95;1.10;;;18.50;40.00;;;;;;6125853;29;20244;-67
2022/05/18 11:51:09;;;;;;;3.45;1.30;;;18.50;38.70;;;;;;6126761;29;20227;-67
2022/05/18 11:54:29;;;;;;;3.03;1.50;;;18.60;38.70;;;;;;6125761;29;20254;-67
2022/05/18 11:57:45;;;;;;;2.92;1.20;;;18.60;38.50;;;;;;6127954;29;20598;-66
2022/05/18 12:00:59;;;;;;;1.30;1.30;;;18.80;38.20;;;;;;6114506;29;20643;-67
2022/05/18 12:04:34;;;;;;;1.98;1.30;;;18.80;37.70;;;;;;6130991;29;20251;-67
2022/05/18 12:07:59;;;;;;;2.45;1.38;;;19.00;36.90;;;;;;6131153;29;20232;-67
2022/05/18 12:11:15;;;;;;;2.10;2.05;;;19.10;34.80;;;;;;6131104;29;20219;-68
2022/05/18 12:14:31;;;;;;;4.25;2.05;;;19.10;35.80;;;;;;6130800;29;20242;-67
2022/05/18 12:17:47;;;;;;;5.00;2.47;;;19.10;36.10;;;;;;6130682;29;20224;-67
2022/05/18 12:20:58;;;;;;;3.53;1.80;;;19.20;35.60;;;;;;6131190;29;20571;-67
2022/05/18 12:24:07;;;;;;;2.88;1.65;;;19.30;35.90;;;;;;6130940;29;20238;-66
2022/05/18 12:27:14;;;;;;;5.57;1.50;;;19.30;35.70;;;;;;6130024;29;20243;-67
2022/05/18 12:30:22;;;;;;;5.05;1.50;;;19.40;34.90;;;;;;6130136;29;20216;-68
2022/05/18 12:33:34;;;;;;;5.50;1.35;;;19.40;35.40;;;;;;6130520;29;20232;-67
2022/05/18 12:36:45;;;;;;;1.90;1.70;;;19.60;35.80;;;;;;6132013;29;20216;-68
2022/05/18 12:40:03;;;;;;;6.28;1.95;;;19.60;35.10;;;;;;6134012;29;20711;-67
2022/05/18 12:43:25;;;;;;;5.47;1.58;;;19.70;34.40;;;;;;6133733;29;20236;-68
2022/05/18 12:46:38;;;;;;;2.53;1.50;;;19.70;33.60;;;;;;6134117;29;20219;-67
2022/05/18 12:49:45;;;;;;;3.38;1.40;;;19.70;33.00;;;;;;6132006;29;20254;-69
2022/05/18 12:52:55;;;;;;;2.40;1.20;;;19.80;32.80;;;;;;6129848;29;20254;-68
2022/05/18 12:56:07;;;;;;;1.83;1.10;;;19.90;32.60;;;;;;6130305;29;20212;-66
2022/05/18 12:59:17;;;;;;;2.92;1.10;;;19.90;32.10;;;;;;6130427;29;20244;-68
2022/05/18 13:02:38;;;;;;;4.68;1.35;;;20.00;32.80;;;;;;6130516;29;20235;-68
2022/05/18 13:05:47;;;;;;;5.25;1.35;;;20.10;32.70;;;;;;6131518;29;20223;-67
2022/05/18 13:09:05;;;;;;;2.28;1.35;;;20.10;31.90;;;;;;6139849;29;20736;-67
2022/05/18 13:12:34;;;;;;;2.70;1.50;;;20.10;32.20;;;;;;6149151;29;20284;-65
2022/05/18 13:15:55;;;;;;;5.03;1.40;;;20.20;33.30;;;;;;6124584;29;20215;-67
2022/05/18 13:19:01;;;;;;;4.13;1.60;;;20.20;33.60;;;;;;6128935;29;20232;-67
2022/05/18 13:22:48;;;;;;;7.07;1.40;;;20.40;33.70;;;;;;6129134;29;20246;-70
2022/05/18 13:26:01;;;;;;;3.28;1.50;;;20.50;33.20;;;;;;6129741;29;20208;-68
2022/05/18 13:29:17;;;;;;;1.15;1.15;;;20.60;34.10;;;;;;6128831;29;20612;-67
2022/05/18 13:32:23;;;;;;;5.80;1.70;;;20.70;34.80;;;;;;6129257;29;20695;-67
2022/05/18 13:35:31;;;;;;;1.77;1.20;;;21.00;33.20;;;;;;6129454;29;20212;-67
2022/05/18 13:38:38;;;;;;;1.25;1.20;;;21.90;32.50;;;;;;6129050;29;20235;-68
2022/05/18 13:41:43;;;;;;;2.10;1.20;;;22.70;31.80;;;;;;6129471;29;20231;-67
2022/05/18 13:44:55;;;;;;;8.13;3.38;;;23.00;31.30;;;;;;6128577;29;20325;-68
2022/05/18 13:48:01;;;;;;;6.50;1.52;;;22.20;32.40;;;;;;6128428;29;20332;-66
2022/05/18 13:51:10;;;;;;;1.45;1.35;;;21.80;32.80;;;;;;6128796;29;20658;-67
2022/05/18 13:54:20;;;;;;;6.55;1.40;;;21.60;33.30;;;;;;6128489;29;20544;-69
2022/05/18 13:57:36;;;;;;;4.57;1.27;;;21.50;33.50;;;;;;6127938;29;20729;-67
2022/05/18 14:00:45;;;;;;;1.05;1.05;;;21.40;33.50;;;;;;6128275;29;20258;-67
2022/05/18 14:03:51;;;;;;;1.27;1.20;;;21.30;33.80;;;;;;6128346;29;20640;-67
2022/05/18 14:07:16;;;;;;;7.30;1.33;;;21.30;34.80;;;;;;6127846;29;20209;-69
2022/05/18 14:10:45;;;;;;;1.95;1.60;;;21.30;33.70;;;;;;6111273;29;20208;-67
2022/05/18 14:13:52;;;;;;;5.40;1.38;;;21.40;33.70;;;;;;6127843;29;20246;-68
2022/05/18 14:17:03;;;;;;;2.53;1.20;;;21.40;33.20;;;;;;6127814;29;20218;-68
2022/05/18 14:20:33;;;;;;;1.30;1.20;;;21.40;32.30;;;;;;6127564;29;20571;-66
2022/05/18 14:24:08;;;;;;;2.70;1.30;;;21.50;32.80;;;;;;6127695;29;20239;-67
2022/05/18 14:27:20;;;;;;;3.13;1.25;;;21.50;32.90;;;;;;6127695;29;20563;-68
2022/05/18 14:30:28;;;;;;;3.05;1.20;;;21.50;33.10;;;;;;6127961;29;20571;-67
2022/05/18 14:33:57;;;;;;;3.28;1.13;;;21.30;33.10;;;;;;6127323;29;20250;-67
2022/05/18 14:37:08;;;;;;;3.75;1.40;;;21.30;33.20;;;;;;6127533;29;20208;-67
2022/05/18 14:40:17;;;;;;;4.78;1.40;;;21.20;33.10;;;;;;6111033;29;20226;-67
2022/05/18 14:43:30;;;;;;;2.08;1.30;;;21.20;33.80;;;;;;6127226;29;20334;-68
2022/05/18 14:46:36;;;;;;;4.10;1.52;;;21.10;33.90;;;;;;6127811;29;20302;-67
2022/05/18 14:49:45;;;;;;;4.57;1.25;;;21.10;34.40;;;;;;6127206;29;20238;-68
2022/05/18 14:52:56;;;;;;;3.10;1.42;;;21.00;34.20;;;;;;6127243;29;20240;-67
2022/05/18 14:56:07;;;;;;;3.03;1.38;;;20.90;34.80;;;;;;6127169;29;20208;-68
2022/05/18 14:59:16;;;;;;;2.75;1.38;;;20.90;34.70;;;;;;6126621;29;20246;-69
2022/05/18 15:02:23;;;;;;;3.05;1.70;;;20.90;34.80;;;;;;6126963;29;20228;-67
2022/05/18 15:05:29;;;;;;;1.30;1.30;;;20.80;35.00;;;;;;6126870;29;20238;-67
2022/05/18 15:08:41;;;;;;;3.33;1.60;;;20.80;35.60;;;;;;6126806;29;20254;-67
2022/05/18 15:11:49;;;;;;;4.47;1.70;;;20.70;35.00;;;;;;6127337;29;20656;-67
2022/05/18 15:15:01;;;;;;;1.77;1.52;;;20.70;35.80;;;;;;6126238;29;20222;-68
2022/05/18 15:18:21;;;;;;;7.93;1.38;;;20.60;35.90;;;;;;6126696;29;20242;-68
2022/05/18 15:21:38;;;;;;;2.45;1.40;;;20.60;35.60;;;;;;6126858;29;20691;-69
2022/05/18 15:24:44;;;;;;;1.40;1.30;;;20.50;35.00;;;;;;6126087;29;20232;-68
2022/05/18 15:27:49;;;;;;;3.10;1.13;;;20.50;35.30;;;;;;6126119;29;20617;-69
2022/05/18 15:31:12;;;;;;;5.25;1.30;;;20.50;35.20;;;;;;6110125;29;20292;-67
2022/05/18 15:34:24;;;;;;;5.70;1.13;;;20.50;35.10;;;;;;6126590;29;20244;-68
2022/05/18 15:37:31;;;;;;;1.70;1.60;;;20.50;35.70;;;;;;6126140;29;20232;-65
2022/05/18 15:40:37;;;;;;;2.08;1.40;;;20.60;36.50;;;;;;6127363;29;20655;-68
2022/05/18 15:43:42;;;;;;;4.20;1.33;;;20.60;37.00;;;;;;6126247;29;20271;-68
2022/05/18 15:46:54;;;;;;;2.10;1.40;;;20.70;37.30;;;;;;6126471;29;20204;-68
2022/05/18 15:50:02;;;;;;;3.15;2.75;;;20.70;36.90;;;;;;6126050;29;20205;-68
2022/05/18 15:53:21;;;;;;;2.60;1.92;;;20.80;37.70;;;;;;6109069;29;20243;-68
2022/05/18 15:56:29;;;;;;;3.60;1.80;;;20.70;37.60;;;;;;6126743;29;20216;-67
2022/05/18 15:59:34;;;;;;;4.03;1.65;;;20.70;37.90;;;;;;6125644;29;20721;-67
2022/05/18 16:02:42;;;;;;;1.70;1.60;;;20.60;38.00;;;;;;6125600;29;20253;-67
2022/05/18 16:05:49;;;;;;;7.20;1.65;;;20.70;37.40;;;;;;6126636;29;20534;-67
2022/05/18 16:08:57;;;;;;;1.30;1.30;;;20.50;37.10;;;;;;6125574;29;20236;-67
2022/05/18 16:12:02;;;;;;;4.40;1.40;;;20.40;37.90;;;;;;6125712;29;20212;-67
2022/05/18 16:15:11;;;;;;;2.92;1.27;;;20.40;38.80;;;;;;6126320;29;20226;-66
2022/05/18 16:18:18;;;;;;;2.85;1.33;;;20.30;38.50;;;;;;6126155;29;20246;-68
2022/05/18 16:21:27;;;;;;;5.78;1.23;;;20.30;39.00;;;;;;6126304;29;20205;-68
2022/05/18 16:24:34;;;;;;;6.35;1.35;;;20.20;39.00;;;;;;6125732;29;20239;-67
2022/05/18 16:27:40;;;;;;;1.38;1.35;;;20.20;39.20;;;;;;6125574;29;20719;-68
2022/05/18 16:30:46;;;;;;;5.93;1.50;;;20.10;40.00;;;;;;6108985;29;20204;-68
2022/05/18 16:34:08;;;;;;;4.47;1.20;;;20.10;40.00;;;;;;6125804;29;20315;-66
2022/05/18 16:37:13;;;;;;;2.75;1.35;;;19.90;40.20;;;;;;6125650;29;20341;-68
2022/05/18 16:40:18;;;;;;;8.02;1.40;;;19.80;40.60;;;;;;6126118;29;20211;-68
2022/05/18 16:43:28;;;;;;;1.60;1.50;;;19.80;40.80;;;;;;6127011;29;20246;-68
2022/05/18 16:46:34;;;;;;;2.03;1.40;;;19.80;41.00;;;;;;6130241;29;20223;-66
2022/05/18 16:49:42;;;;;;;5.68;1.25;;;19.80;41.40;;;;;;6129703;29;20239;-67